Time;durP1;ratioP1;P1;durP2;ratioP2;P2;SDS_P1;SDS_P2;PMS_P1;PMS_P2;Temp;Humidity;BMP_temperature;BMP_pressure;BME280_temperature;BME280_humidity;BME280_pressure;Samples;Min_cycle;Max_cycle;Signal;HPM_P1;HPM_P2
2021/04/12 00:01:41;;;;;;;;;;;;;;;3.18;100.00;93698.19;5114363;28;19977;-76
2021/04/12 00:04:11;;;;;;;;;;;;;;;3.09;100.00;93705.91;5114177;28;19923;-80
2021/04/12 00:06:38;;;;;;;;;;;;;;;3.10;100.00;93717.06;5113958;28;20312;-81
2021/04/12 00:09:07;;;;;;;;;;;;;;;3.00;100.00;93717.19;5113829;28;19976;-78
2021/04/12 00:11:37;;;;;;;;;;;;;;;2.99;100.00;93717.31;5113899;28;19977;-76
2021/04/12 00:14:07;;;;;;;;;;;;;;;2.87;100.00;93727.91;5114473;28;20359;-75
2021/04/12 00:16:35;;;;;;;;;;;;;;;2.75;100.00;93740.28;5114156;28;19981;-76
2021/04/12 00:19:05;;;;;;;;;;;;;;;2.54;100.00;93760.44;5114105;28;19923;-80
2021/04/12 00:21:37;;;;;;;;;;;;;;;2.42;100.00;93754.72;5113854;28;19924;-75
2021/04/12 00:24:06;;;;;;;;;;;;;;;2.40;100.00;93761.81;5113858;28;19924;-78
2021/04/12 00:26:35;;;;;;;;;;;;;;;2.16;100.00;93768.38;5114106;28;19931;-78
2021/04/12 00:29:05;;;;;;;;;;;;;;;1.97;100.00;93766.78;5113869;28;19969;-77
2021/04/12 00:31:34;;;;;;;;;;;;;;;1.96;100.00;93785.75;5113899;28;19932;-79
2021/04/12 00:34:04;;;;;;;;;;;;;;;1.96;100.00;93785.75;5113836;28;19924;-77
2021/04/12 00:36:33;;;;;;;;;;;;;;;1.85;100.00;93778.28;5113724;28;19931;-78
2021/04/12 00:39:01;;;;;;;;;;;;;;;1.56;100.00;93778.47;5113862;28;20301;-75
2021/04/12 00:41:38;;;;;;;;;;;;;;;1.40;100.00;93785.09;5113782;28;19924;-77
2021/04/12 00:44:08;;;;;;;;;;;;;;;1.28;100.00;93801.66;5113704;28;19928;-79
2021/04/12 00:46:40;;;;;;;;;;;;;;;1.12;100.00;93812.56;5113693;28;20040;-77
2021/04/12 00:49:14;;;;;;;;;;;;;;;0.97;100.00;93834.53;5113572;28;19928;-77
2021/04/12 00:51:46;;;;;;;;;;;;;;;0.75;100.00;93836.50;5113799;28;20037;-77
2021/04/12 00:54:28;;;;;;;;;;;;;;;0.62;100.00;93836.78;5116810;28;19923;-76
2021/04/12 00:56:57;;;;;;;;;;;;;;;0.49;100.00;93837.06;5117837;28;19923;-76
2021/04/12 00:59:32;;;;;;;;;;;;;;;0.45;100.00;93837.47;5117731;28;19924;-80
2021/04/12 01:02:05;;;;;;;;;;;;;;;0.46;100.00;93834.78;5117649;28;20328;-82
2021/04/12 01:04:35;;;;;;;;;;;;;;;0.38;100.00;93844.91;5117542;28;19924;-81
2021/04/12 01:07:19;;;;;;;;;;;;;;;0.30;100.00;93853.31;5117645;28;19931;-81
2021/04/12 01:10:09;;;;;;;;;;;;;;;0.28;100.00;93865.47;5116998;28;20036;-79
2021/04/12 01:12:48;;;;;;;;;;;;;;;0.25;100.00;93870.91;5117453;28;20424;-78
2021/04/12 01:15:28;;;;;;;;;;;;;;;0.27;100.00;93876.69;5117549;28;20270;-79
2021/04/12 01:18:00;;;;;;;;;;;;;;;0.18;100.00;93867.22;5114194;28;19931;-76
2021/04/12 01:20:44;;;;;;;;;;;;;;;0.16;100.00;93874.25;5117428;28;19923;-77
2021/04/12 01:23:37;;;;;;;;;;;;;;;0.16;100.00;93880.19;5117373;28;19928;-79
2021/04/12 01:26:27;;;;;;;;;;;;;;;0.14;100.00;93883.84;5068863;28;20271;-79
2021/04/12 01:29:26;;;;;;;;;;;;;;;0.11;100.00;93889.25;5117190;28;20384;-80
2021/04/12 01:32:09;;;;;;;;;;;;;;;0.09;100.00;93875.75;5034308;28;19925;-79
2021/04/12 01:34:52;;;;;;;;;;;;;;;0.09;100.00;93881.69;5004988;28;19932;-79
2021/04/12 01:37:31;;;;;;;;;;;;;;;0.04;100.00;93893.31;5079733;28;19924;-79
2021/04/12 01:40:08;;;;;;;;;;;;;;;0.09;100.00;93896.28;5116876;28;20378;-79
2021/04/12 01:42:39;;;;;;;;;;;;;;;0.13;100.00;93902.75;5117047;28;19923;-81
2021/04/12 01:45:15;;;;;;;;;;;;;;;0.10;100.00;93905.59;5116751;28;19930;-79
2021/04/12 01:47:53;;;;;;;;;;;;;;;0.06;100.00;93911.94;5115939;28;19973;-81
2021/04/12 01:50:25;;;;;;;;;;;;;;;0.10;100.00;93913.28;5116671;28;19924;-80
2021/04/12 01:53:03;;;;;;;;;;;;;;;0.05;100.00;93915.44;5116819;28;19951;-80
2021/04/12 01:55:35;;;;;;;;;;;;;;;0.02;100.00;93910.56;5116661;28;19924;-80
2021/04/12 01:58:10;;;;;;;;;;;;;;;-0.01;100.00;93915.03;5116784;28;20260;-82
2021/04/12 02:00:46;;;;;;;;;;;;;;;-0.01;100.00;93920.16;5116683;28;19923;-81
2021/04/12 02:03:21;;;;;;;;;;;;;;;0.01;100.00;93917.47;5116542;28;19923;-81
2021/04/12 02:06:05;;;;;;;;;;;;;;;0.01;100.00;93914.91;5115533;28;19960;-81
2021/04/12 02:08:36;;;;;;;;;;;;;;;-0.02;100.00;93920.31;5116379;28;19925;-82
2021/04/12 02:11:17;;;;;;;;;;;;;;;0.04;100.00;93936.94;5116139;28;19927;-81
2021/04/12 02:14:11;;;;;;;;;;;;;;;-0.04;100.00;93923.00;5113138;28;19955;-81
2021/04/12 02:16:42;;;;;;;;;;;;;;;0.02;100.00;93931.09;5116183;28;19927;-81
2021/04/12 02:19:19;;;;;;;;;;;;;;;-0.05;100.00;93933.38;5116300;28;20018;-81
2021/04/12 02:21:57;;;;;;;;;;;;;;;-0.09;100.00;93925.16;5115922;28;19924;-81
2021/04/12 02:24:29;;;;;;;;;;;;;;;-0.06;100.00;93919.75;5116209;28;19976;-81
2021/04/12 02:27:01;;;;;;;;;;;;;;;-0.05;100.00;93931.66;5115983;28;19931;-80
2021/04/12 02:29:31;;;;;;;;;;;;;;;0.02;100.00;93936.25;5116153;28;19924;-81
2021/04/12 02:32:07;;;;;;;;;;;;;;;0.05;100.00;93938.53;5116084;28;19935;-81
2021/04/12 02:34:37;;;;;;;;;;;;;;;-0.09;100.00;93952.56;5115941;28;20331;-81
2021/04/12 02:37:09;;;;;;;;;;;;;;;-0.16;100.00;93947.16;5115861;28;19924;-81
2021/04/12 02:39:45;;;;;;;;;;;;;;;-0.12;100.00;93948.50;5115693;28;19935;-81
2021/04/12 02:42:15;;;;;;;;;;;;;;;-0.12;100.00;93945.94;5115937;28;19930;-82
2021/04/12 02:44:48;;;;;;;;;;;;;;;-0.15;100.00;93956.47;5115662;28;20022;-82
2021/04/12 02:47:34;;;;;;;;;;;;;;;-0.17;100.00;93963.47;5115732;28;19924;-81
2021/04/12 02:50:05;;;;;;;;;;;;;;;-0.19;100.00;93965.38;5081086;28;19932;-80
2021/04/12 02:52:33;;;;;;;;;;;;;;;-0.19;100.00;93973.06;5115783;28;19924;-79
2021/04/12 02:55:16;;;;;;;;;;;;;;;-0.19;100.00;93988.47;5115556;28;19930;-81
2021/04/12 02:57:54;;;;;;;;;;;;;;;-0.28;100.00;93984.91;5115530;28;19977;-80
2021/04/12 03:00:27;;;;;;;;;;;;;;;-0.23;100.00;93994.81;5115245;28;19923;-80
2021/04/12 03:02:57;;;;;;;;;;;;;;;-0.23;100.00;93994.81;5115189;28;19931;-80
2021/04/12 03:05:40;;;;;;;;;;;;;;;-0.17;100.00;93999.41;5115284;28;20428;-79
2021/04/12 03:08:25;;;;;;;;;;;;;;;-0.26;100.00;93989.94;5115284;28;19923;-78
2021/04/12 03:11:00;;;;;;;;;;;;;;;-0.21;100.00;93980.88;5115090;28;19987;-79
2021/04/12 03:13:44;;;;;;;;;;;;;;;-0.26;100.00;93975.34;5115161;28;20366;-80
2021/04/12 03:16:16;;;;;;;;;;;;;;;-0.26;100.00;93979.66;5114393;28;20413;-79
2021/04/12 03:19:00;;;;;;;;;;;;;;;-0.28;100.00;93986.69;5115079;28;19923;-80
2021/04/12 03:21:51;;;;;;;;;;;;;;;-0.25;100.00;93983.84;5115116;28;20351;-78
2021/04/12 03:24:21;;;;;;;;;;;;;;;-0.25;100.00;93987.22;5115042;28;19928;-80
2021/04/12 03:27:02;;;;;;;;;;;;;;;-0.26;100.00;93989.94;5114973;28;20397;-79
2021/04/12 03:29:33;;;;;;;;;;;;;;;-0.29;100.00;94015.84;5111668;28;19992;-79
2021/04/12 03:32:12;;;;;;;;;;;;;;;-0.34;100.00;94023.91;5115163;28;19923;-79
2021/04/12 03:34:40;;;;;;;;;;;;;;;-0.28;100.00;94027.72;5114774;28;20297;-80
2021/04/12 03:37:20;;;;;;;;;;;;;;;-0.25;100.00;94033.41;5114714;28;19924;-78
2021/04/12 03:39:47;;;;;;;;;;;;;;;-0.29;100.00;94020.97;5114563;28;19981;-78
2021/04/12 03:42:30;;;;;;;;;;;;;;;-0.36;100.00;94019.84;5114671;28;20018;-78
2021/04/12 03:45:06;;;;;;;;;;;;;;;-0.36;100.00;94033.47;5114415;28;19931;-77
2021/04/12 03:47:41;;;;;;;;;;;;;;;-0.38;100.00;94032.81;5114441;28;19924;-78
2021/04/12 03:50:21;;;;;;;;;;;;;;;-0.39;100.00;94037.09;5113704;28;19931;-79
2021/04/12 03:52:58;;;;;;;;;;;;;;;-0.40;100.00;94034.66;5114491;28;20443;-79
2021/04/12 03:55:39;;;;;;;;;;;;;;;-0.35;100.00;94039.41;5114466;28;19924;-79
2021/04/12 03:58:12;;;;;;;;;;;;;;;-0.39;100.00;94042.22;5111107;28;19923;-78
2021/04/12 04:00:55;;;;;;;;;;;;;;;-0.45;100.00;94037.63;5114146;28;19931;-76
2021/04/12 04:03:25;;;;;;;;;;;;;;;-0.45;100.00;94041.94;5114336;28;19969;-77
2021/04/12 04:06:01;;;;;;;;;;;;;;;-0.38;100.00;94045.63;5114044;28;19927;-79
2021/04/12 04:08:39;;;;;;;;;;;;;;;-0.39;100.00;94044.78;5114093;28;19984;-77
2021/04/12 04:11:23;;;;;;;;;;;;;;;-0.40;100.00;94035.50;5114011;28;19976;-76
2021/04/12 04:14:11;;;;;;;;;;;;;;;-0.40;100.00;94057.75;5114314;28;19924;-76
2021/04/12 04:16:49;;;;;;;;;;;;;;;-0.44;100.00;94058.94;5113944;28;20298;-76
2021/04/12 04:19:19;;;;;;;;;;;;;;;-0.48;100.00;94063.53;5114209;28;19930;-77
2021/04/12 04:22:06;;;;;;;;;;;;;;;-0.42;100.00;94060.47;5114064;28;19935;-77
2021/04/12 04:24:46;;;;;;;;;;;;;;;-0.45;100.00;94070.13;5113854;28;19923;-77
2021/04/12 04:27:24;;;;;;;;;;;;;;;-0.43;100.00;94071.66;5096299;28;20293;-77
2021/04/12 04:30:10;;;;;;;;;;;;;;;-0.41;100.00;94082.59;5113745;28;19924;-78
2021/04/12 04:32:52;;;;;;;;;;;;;;;-0.44;100.00;94075.13;5113952;28;19924;-76
2021/04/12 04:35:45;;;;;;;;;;;;;;;-0.47;100.00;94080.50;5113726;28;20278;-76
2021/04/12 04:38:35;;;;;;;;;;;;;;;-0.45;100.00;94086.34;5065561;28;19930;-77
2021/04/12 04:41:09;;;;;;;;;;;;;;;-0.48;100.00;94089.16;5113954;28;20341;-76
2021/04/12 04:43:46;;;;;;;;;;;;;;;-0.48;100.00;94109.69;5113693;28;19924;-77
2021/04/12 04:46:26;;;;;;;;;;;;;;;-0.47;100.00;94100.22;5113754;28;19968;-77
2021/04/12 04:49:03;;;;;;;;;;;;;;;-0.51;100.00;94104.81;5096326;28;19931;-77
2021/04/12 04:51:36;;;;;;;;;;;;;;;-0.43;100.00;94109.31;5113704;28;19954;-77
2021/04/12 04:54:15;;;;;;;;;;;;;;;-0.42;100.00;94113.47;5113670;28;19930;-76
2021/04/12 04:56:48;;;;;;;;;;;;;;;-0.42;100.00;94119.44;5113609;28;19977;-77
2021/04/12 04:59:24;;;;;;;;;;;;;;;-0.45;100.00;94119.69;5113763;28;19924;-76
2021/04/12 05:02:00;;;;;;;;;;;;;;;-0.39;100.00;94129.44;5113737;28;19923;-77
2021/04/12 05:04:41;;;;;;;;;;;;;;;-0.48;100.00;94134.50;5113595;28;19946;-77
2021/04/12 05:07:19;;;;;;;;;;;;;;;-0.44;100.00;94128.19;5113513;28;20314;-77
2021/04/12 05:09:59;;;;;;;;;;;;;;;-0.46;100.00;94133.44;5113709;28;19924;-77
2021/04/12 05:12:43;;;;;;;;;;;;;;;-0.43;100.00;94137.53;5113612;28;19977;-78
2021/04/12 05:15:21;;;;;;;;;;;;;;;-0.36;100.00;94148.09;5113453;28;19923;-77
2021/04/12 05:18:02;;;;;;;;;;;;;;;-0.37;100.00;94142.13;5113357;28;20397;-77
2021/04/12 05:20:48;;;;;;;;;;;;;;;-0.35;100.00;94145.41;5113340;28;19928;-76
2021/04/12 05:23:41;;;;;;;;;;;;;;;-0.38;100.00;94161.84;5106423;28;19924;-77
2021/04/12 05:26:25;;;;;;;;;;;;;;;-0.32;100.00;94175.09;5113231;28;19928;-77
2021/04/12 05:29:09;;;;;;;;;;;;;;;-0.40;100.00;94184.25;5113444;28;19924;-77
2021/04/12 05:31:44;;;;;;;;;;;;;;;-0.38;100.00;94184.94;5113403;28;19927;-77
2021/04/12 05:34:22;;;;;;;;;;;;;;;-0.29;100.00;94191.06;5113229;28;19969;-76
2021/04/12 05:36:55;;;;;;;;;;;;;;;-0.28;100.00;94197.03;5113336;28;19996;-77
2021/04/12 05:39:27;;;;;;;;;;;;;;;-0.35;100.00;94212.09;5113144;28;19924;-76
2021/04/12 05:42:00;;;;;;;;;;;;;;;-0.22;100.00;94207.59;5116899;28;19954;-77
2021/04/12 05:44:36;;;;;;;;;;;;;;;-0.24;100.00;94216.34;5117121;28;19923;-77
2021/04/12 05:47:09;;;;;;;;;;;;;;;-0.20;100.00;94227.97;5116306;28;19931;-77
2021/04/12 05:49:50;;;;;;;;;;;;;;;-0.12;100.00;94248.69;5116688;28;19924;-77
2021/04/12 05:52:23;;;;;;;;;;;;;;;-0.17;100.00;94240.56;5116810;28;19924;-76
2021/04/12 05:54:57;;;;;;;;;;;;;;;-0.23;100.00;94248.78;5116941;28;19924;-77
2021/04/12 05:57:40;;;;;;;;;;;;;;;-0.29;100.00;94246.69;5116819;28;19923;-76
2021/04/12 06:00:16;;;;;;;;;;;;;;;-0.23;100.00;94259.03;5116927;28;19931;-77
2021/04/12 06:02:55;;;;;;;;;;;;;;;-0.17;100.00;94265.41;5116705;28;19930;-77
2021/04/12 06:05:22;;;;;;;;;;;;;;;-0.16;100.00;94272.19;5116282;28;20426;-77
2021/04/12 06:07:56;;;;;;;;;;;;;;;-0.12;100.00;94283.81;5116327;28;19924;-77
2021/04/12 06:10:36;;;;;;;;;;;;;;;-0.12;100.00;94279.50;5116780;28;19947;-77
2021/04/12 06:13:18;;;;;;;;;;;;;;;-0.10;100.00;94285.34;5116513;28;19931;-78
2021/04/12 06:16:02;;;;;;;;;;;;;;;-0.07;100.00;94287.63;5116410;28;19923;-77
2021/04/12 06:18:46;;;;;;;;;;;;;;;-0.02;100.00;94295.81;5116485;28;19980;-76
2021/04/12 06:21:28;;;;;;;;;;;;;;;-0.19;100.00;94293.75;5116034;28;20298;-76
2021/04/12 06:24:05;;;;;;;;;;;;;;;-0.26;100.00;94300.31;5116465;28;19924;-76
2021/04/12 06:26:48;;;;;;;;;;;;;;;-0.28;100.00;94300.44;5115981;28;19931;-77
2021/04/12 06:29:20;;;;;;;;;;;;;;;-0.25;100.00;94301.94;5116009;28;19924;-76
2021/04/12 06:32:06;;;;;;;;;;;;;;;-0.26;100.00;94308.03;5116074;28;19924;-76
2021/04/12 06:34:59;;;;;;;;;;;;;;;-0.27;100.00;94312.31;5115933;28;19924;-77
2021/04/12 06:37:35;;;;;;;;;;;;;;;-0.30;100.00;94317.72;5116083;28;19924;-77
2021/04/12 06:40:26;;;;;;;;;;;;;;;-0.23;100.00;94328.31;5115700;28;19924;-77
2021/04/12 06:46:05;;;;;;;;;;;;;;;-0.15;100.00;94341.34;5111358;27;19977;-77
2021/04/12 06:48:49;;;;;;;;;;;;;;;-0.10;100.00;94344.38;5111062;28;19924;-77
2021/04/12 06:51:26;;;;;;;;;;;;;;;-0.11;100.00;94345.28;5111103;28;19985;-76
2021/04/12 06:54:22;;;;;;;;;;;;;;;-0.06;100.00;94343.16;5111353;28;19927;-77
2021/04/12 06:57:07;;;;;;;;;;;;;;;-0.02;100.00;94362.53;5111085;28;19924;-76
2021/04/12 06:59:55;;;;;;;;;;;;;;;-0.04;100.00;94359.25;5110909;28;19935;-76
2021/04/12 07:02:40;;;;;;;;;;;;;;;-0.01;100.00;94365.91;5110881;28;20061;-77
2021/04/12 07:05:14;;;;;;;;;;;;;;;0.01;100.00;94360.66;5110878;28;19923;-78
2021/04/12 07:07:57;;;;;;;;;;;;;;;0.12;100.00;94369.13;5110955;28;19924;-77
2021/04/12 07:10:47;;;;;;;;;;;;;;;0.14;100.00;94356.97;5110646;28;19938;-78
2021/04/12 07:13:28;;;;;;;;;;;;;;;0.13;100.00;94370.78;5071530;28;19924;-78
2021/04/12 07:16:06;;;;;;;;;;;;;;;0.10;100.00;94370.19;5110860;28;19924;-79
2021/04/12 07:18:51;;;;;;;;;;;;;;;0.10;100.00;94370.19;5110912;28;19924;-79
2021/04/12 07:21:36;;;;;;;;;;;;;;;0.18;100.00;94373.78;5110811;28;19923;-79
2021/04/12 07:24:21;;;;;;;;;;;;;;;0.25;100.00;94376.69;5110517;28;19928;-78
2021/04/12 07:27:07;;;;;;;;;;;;;;;0.12;100.00;94378.59;5110557;28;19969;-78
2021/04/12 07:29:52;;;;;;;;;;;;;;;0.33;100.00;94376.88;5092536;28;20401;-77
2021/04/12 07:32:44;;;;;;;;;;;;;;;0.38;100.00;94385.94;5110420;28;20346;-78
2021/04/12 07:35:25;;;;;;;;;;;;;;;0.17;100.00;94386.75;5110283;28;19928;-78
2021/04/12 07:38:08;;;;;;;;;;;;;;;0.27;100.00;94392.78;5110564;28;19928;-78
2021/04/12 07:40:52;;;;;;;;;;;;;;;0.30;100.00;94389.97;5110298;28;19928;-78
2021/04/12 07:43:45;;;;;;;;;;;;;;;0.54;100.00;94386.34;5110254;28;19931;-78
2021/04/12 07:46:19;;;;;;;;;;;;;;;0.57;100.00;94393.81;5109636;28;19951;-79
2021/04/12 07:49:14;;;;;;;;;;;;;;;0.57;100.00;94398.94;5110253;28;20283;-79
2021/04/12 07:51:53;;;;;;;;;;;;;;;0.63;100.00;94402.78;5110102;28;20027;-77
2021/04/12 07:54:44;;;;;;;;;;;;;;;0.55;100.00;94400.84;5109896;28;20294;-77
2021/04/12 07:57:28;;;;;;;;;;;;;;;0.49;100.00;94411.59;5096094;28;20006;-77
2021/04/12 08:00:15;;;;;;;;;;;;;;;0.64;100.00;94412.91;5096182;28;20018;-78
2021/04/12 08:02:58;;;;;;;;;;;;;;;0.75;100.00;94412.06;5092545;28;20011;-79
2021/04/12 08:05:42;;;;;;;;;;;;;;;0.72;100.00;94423.41;5096250;28;19924;-79
2021/04/12 08:08:14;;;;;;;;;;;;;;;0.73;100.00;94422.47;5095672;28;20385;-78
2021/04/12 08:10:59;;;;;;;;;;;;;;;0.63;100.00;94419.00;5087971;28;20325;-78
2021/04/12 08:13:50;;;;;;;;;;;;;;;0.91;100.00;94427.03;5075844;28;19970;-77
2021/04/12 08:16:29;;;;;;;;;;;;;;;0.95;100.00;94438.72;5075729;28;19924;-77
2021/04/12 08:19:07;;;;;;;;;;;;;;;0.87;100.00;94430.81;5075613;28;19932;-77
2021/04/12 08:21:54;;;;;;;;;;;;;;;0.68;100.00;94432.31;5075728;28;19929;-78
2021/04/12 08:24:38;;;;;;;;;;;;;;;0.66;100.00;94434.16;5068780;28;19935;-77
2021/04/12 08:27:13;;;;;;;;;;;;;;;0.67;100.00;94438.38;5095807;28;19969;-77
2021/04/12 08:29:58;;;;;;;;;;;;;;;0.73;100.00;94440.47;5095594;28;19931;-75
2021/04/12 08:32:52;;;;;;;;;;;;;;;0.82;100.00;94433.75;5095790;28;19924;-77
2021/04/12 08:35:51;;;;;;;;;;;;;;;1.19;100.00;94438.44;5095459;28;20388;-76
2021/04/12 08:38:43;;;;;;;;;;;;;;;1.51;100.00;94445.22;5046352;28;20371;-78
2021/04/12 08:41:31;;;;;;;;;;;;;;;1.63;100.00;94453.69;5078484;28;20413;-76
2021/04/12 08:44:18;;;;;;;;;;;;;;;1.65;100.00;94451.81;5079946;28;19924;-77
2021/04/12 08:47:17;;;;;;;;;;;;;;;1.79;100.00;94453.22;5061237;28;20326;-76
2021/04/12 08:50:05;;;;;;;;;;;;;;;2.31;100.00;94453.88;5013145;28;20012;-77
2021/04/12 08:52:49;;;;;;;;;;;;;;;2.03;100.00;94465.75;5012971;28;19925;-77
2021/04/12 08:55:32;;;;;;;;;;;;;;;2.16;100.00;94470.66;5070406;28;19970;-79
2021/04/12 08:58:17;;;;;;;;;;;;;;;2.14;100.00;94470.78;5063834;28;20290;-77
2021/04/12 09:01:09;;;;;;;;;;;;;;;2.12;100.00;94472.69;5094963;28;19924;-77
2021/04/12 09:04:04;;;;;;;;;;;;;;;1.75;100.00;94473.25;5095056;28;20283;-77
2021/04/12 09:06:48;;;;;;;;;;;;;;;1.40;100.00;94481.31;5094843;28;20361;-78
2021/04/12 09:09:35;;;;;;;;;;;;;;;1.28;100.00;94485.72;5094318;28;20020;-78
2021/04/12 09:12:19;;;;;;;;;;;;;;;1.29;100.00;94483.03;5094857;28;20066;-80
2021/04/12 09:15:01;;;;;;;;;;;;;;;1.59;100.00;94491.72;5094887;28;19993;-77
2021/04/12 09:17:38;;;;;;;;;;;;;;;1.79;100.00;94496.97;5094686;28;19931;-79
2021/04/12 09:20:21;;;;;;;;;;;;;;;1.84;100.00;94497.41;5094860;28;19924;-77
2021/04/12 09:23:05;;;;;;;;;;;;;;;1.99;100.00;94497.88;5094778;28;19954;-79
2021/04/12 09:25:46;;;;;;;;;;;;;;;2.37;100.00;94499.72;5094349;28;19951;-77
2021/04/12 09:28:30;;;;;;;;;;;;;;;2.84;100.00;94498.31;5094689;28;19924;-76
2021/04/12 09:31:14;;;;;;;;;;;;;;;3.31;100.00;94499.25;5053526;28;19924;-75
2021/04/12 09:34:14;;;;;;;;;;;;;;;3.73;100.00;94507.56;5094383;28;20367;-77
2021/04/12 09:36:50;;;;;;;;;;;;;;;4.20;100.00;94507.56;5094606;28;19939;-77
2021/04/12 09:39:33;;;;;;;;;;;;;;;4.22;100.00;94509.03;5094387;28;19924;-76
2021/04/12 09:42:10;;;;;;;;;;;;;;;3.96;100.00;94515.78;5114145;28;19931;-76
2021/04/12 09:44:51;;;;;;;;;;;;;;;4.31;100.00;94524.63;5114262;28;19930;-77
2021/04/12 09:47:30;;;;;;;;;;;;;;;4.62;100.00;94512.22;5111794;28;19931;-75
2021/04/12 09:50:17;;;;;;;;;;;;;;;5.08;99.19;94514.75;5114599;28;19924;-76
2021/04/12 09:52:51;;;;;;;;;;;;;;;5.55;94.12;94520.47;5079949;28;19935;-77
2021/04/12 09:55:28;;;;;;;;;;;;;;;6.16;92.98;94515.38;5114571;28;20312;-77
2021/04/12 09:58:16;;;;;;;;;;;;;;;6.66;87.39;94524.13;5114454;28;20272;-76
2021/04/12 10:00:56;;;;;;;;;;;;;;;7.02;83.22;94524.72;5113693;28;20017;-77
2021/04/12 10:03:41;;;;;;;;;;;;;;;7.22;84.66;94527.81;5113737;28;19988;-76
2021/04/12 10:06:37;;;;;;;;;;;;;;;7.33;83.78;94526.72;5113766;28;20340;-78
2021/04/12 10:09:20;;;;;;;;;;;;;;;7.13;84.57;94525.41;5030804;28;20392;-77
2021/04/12 10:11:48;;;;;;;;;;;;;;;6.83;86.33;94532.81;5093777;28;19984;-76
2021/04/12 10:14:16;;;;;;;;;;;;;;;6.38;85.22;94536.53;5114219;28;19931;-76
2021/04/12 10:16:45;;;;;;;;;;;;;;;6.28;87.98;94523.69;5114085;28;20332;-75
2021/04/12 10:19:14;;;;;;;;;;;;;;;5.85;87.85;94528.78;5113779;28;20012;-76
2021/04/12 10:21:43;;;;;;;;;;;;;;;5.77;87.06;94533.91;5114247;28;19927;-77
2021/04/12 10:24:15;;;;;;;;;;;;;;;5.82;90.40;94536.84;5113752;28;19947;-77
2021/04/12 10:26:44;;;;;;;;;;;;;;;5.61;87.92;94537.19;5114072;28;19931;-77
2021/04/12 10:29:13;;;;;;;;;;;;;;;5.58;88.42;94540.09;5113643;28;19928;-77
2021/04/12 10:31:41;;;;;;;;;;;;;;;5.23;92.35;94538.34;5113907;28;19928;-75
2021/04/12 10:34:10;;;;;;;;;;;;;;;5.22;93.45;94537.53;5113912;28;19931;-76
2021/04/12 10:36:42;;;;;;;;;;;;;;;5.00;94.62;94536.22;5113640;28;19930;-76
2021/04/12 10:39:11;;;;;;;;;;;;;;;4.75;91.99;94538.53;5113813;28;19935;-76
2021/04/12 10:41:41;;;;;;;;;;;;;;;4.22;92.07;94541.81;5113554;28;20271;-77
2021/04/12 10:44:10;;;;;;;;;;;;;;;4.90;96.47;94544.03;5113113;28;19924;-77
2021/04/12 10:46:42;;;;;;;;;;;;;;;4.95;94.12;94546.19;5113429;28;19924;-75
2021/04/12 10:49:11;;;;;;;;;;;;;;;5.33;94.23;94544.28;5113558;28;20389;-76
2021/04/12 10:51:44;;;;;;;;;;;;;;;5.83;91.94;94541.06;5113199;28;19924;-76
2021/04/12 10:54:36;;;;;;;;;;;;;;;6.42;88.84;94536.06;5113781;28;19981;-76
2021/04/12 10:57:07;;;;;;;;;;;;;;;6.71;84.46;94539.25;5113594;28;19935;-76
2021/04/12 10:59:50;;;;;;;;;;;;;;;6.87;85.53;94533.31;5113296;28;19923;-76
2021/04/12 11:02:20;;;;;;;;;;;;;;;6.51;88.11;94538.69;5113277;28;19931;-76
2021/04/12 11:04:52;;;;;;;;;;;;;;;6.53;89.50;94534.16;5111588;28;19966;-75
2021/04/12 11:07:21;;;;;;;;;;;;;;;6.24;88.96;94530.94;5113149;28;19923;-76
2021/04/12 11:09:56;;;;;;;;;;;;;;;6.06;88.62;94531.03;5113339;28;19924;-76
2021/04/12 11:12:40;;;;;;;;;;;;;;;5.53;90.11;94524.19;5113359;28;19924;-76
2021/04/12 11:15:13;;;;;;;;;;;;;;;5.91;88.23;94528.19;5113287;28;19924;-74
2021/04/12 11:17:41;;;;;;;;;;;;;;;5.67;89.54;94528.00;5112680;28;20359;-75
2021/04/12 11:20:11;;;;;;;;;;;;;;;5.74;92.05;94526.44;5112974;28;19924;-76
2021/04/12 11:22:46;;;;;;;;;;;;;;;6.58;85.91;94530.13;5113264;28;19923;-76
2021/04/12 11:25:15;;;;;;;;;;;;;;;6.68;84.43;94537.78;5113233;28;19931;-76
2021/04/12 11:27:51;;;;;;;;;;;;;;;6.26;83.47;94535.97;5113413;28;19931;-75
2021/04/12 11:30:19;;;;;;;;;;;;;;;5.76;84.89;94545.22;5113461;28;19924;-75
2021/04/12 11:32:55;;;;;;;;;;;;;;;5.21;86.76;94542.84;5117028;28;20524;-75
2021/04/12 11:35:24;;;;;;;;;;;;;;;5.73;86.68;94540.38;5117303;28;19972;-75
2021/04/12 11:37:58;;;;;;;;;;;;;;;5.78;83.34;94532.94;5116932;28;19935;-73
2021/04/12 11:40:26;;;;;;;;;;;;;;;6.19;81.20;94537.56;5117053;28;19924;-75
2021/04/12 11:42:54;;;;;;;;;;;;;;;6.33;80.40;94538.78;5116688;28;19976;-75
2021/04/12 11:45:23;;;;;;;;;;;;;;;6.40;80.16;94548.38;5115047;28;19927;-76
2021/04/12 11:47:52;;;;;;;;;;;;;;;7.33;75.58;94554.47;5115867;28;20432;-75
2021/04/12 11:50:23;;;;;;;;;;;;;;;8.16;73.04;94550.84;5115974;28;19930;-76
2021/04/12 11:52:54;;;;;;;;;;;;;;;8.92;72.77;94551.25;5116878;28;20298;-76
2021/04/12 11:55:26;;;;;;;;;;;;;;;10.41;64.31;94558.72;5116805;28;19928;-75
2021/04/12 11:57:57;;;;;;;;;;;;;;;11.13;63.30;94555.41;5116614;28;19923;-75
2021/04/12 12:00:28;;;;;;;;;;;;;;;11.03;61.99;94555.72;5116523;28;19924;-76
2021/04/12 12:03:09;;;;;;;;;;;;;;;11.99;62.75;94552.00;5116661;28;19981;-79
2021/04/12 12:05:36;;;;;;;;;;;;;;;12.80;57.30;94551.50;5116483;28;20042;-80
2021/04/12 12:08:06;;;;;;;;;;;;;;;12.28;58.84;94548.41;5116493;28;19927;-78
2021/04/12 12:10:38;;;;;;;;;;;;;;;11.70;56.54;94566.03;5114181;28;19924;-78
2021/04/12 12:13:08;;;;;;;;;;;;;;;10.11;60.00;94559.50;5115984;28;19924;-78
2021/04/12 12:15:38;;;;;;;;;;;;;;;10.17;59.67;94563.19;5116345;28;19931;-75
2021/04/12 12:18:06;;;;;;;;;;;;;;;10.02;62.07;94557.16;5116339;28;19923;-77
2021/04/12 12:20:36;;;;;;;;;;;;;;;10.14;58.58;94559.16;5116163;28;20402;-76
2021/04/12 12:23:09;;;;;;;;;;;;;;;10.17;60.70;94565.78;5116670;28;19951;-76
2021/04/12 12:25:40;;;;;;;;;;;;;;;10.08;59.85;94561.66;5116269;28;19943;-77
2021/04/12 12:28:11;;;;;;;;;;;;;;;9.39;63.32;94558.13;5116168;28;19924;-76
2021/04/12 12:30:45;;;;;;;;;;;;;;;9.57;64.10;94562.25;5115936;28;19931;-77
2021/04/12 12:33:15;;;;;;;;;;;;;;;9.90;61.64;94564.59;5115963;28;20354;-77
2021/04/12 12:35:46;;;;;;;;;;;;;;;10.17;61.16;94556.19;5115969;28;19930;-76
2021/04/12 12:38:20;;;;;;;;;;;;;;;9.99;62.03;94563.50;5116080;28;19924;-78
2021/04/12 12:40:49;;;;;;;;;;;;;;;9.55;64.02;94567.63;5115928;28;19924;-78
2021/04/12 12:43:19;;;;;;;;;;;;;;;8.77;63.88;94565.97;5114309;28;20374;-76
2021/04/12 12:45:45;;;;;;;;;;;;;;;8.67;63.92;94563.56;5113939;28;19924;-75
2021/04/12 12:48:13;;;;;;;;;;;;;;;8.24;66.33;94570.81;5115332;28;19985;-76
2021/04/12 12:50:44;;;;;;;;;;;;;;;7.99;70.25;94568.25;5114982;28;20374;-76
2021/04/12 12:53:11;;;;;;;;;;;;;;;8.30;67.56;94573.56;5115737;28;19924;-77
2021/04/12 12:55:40;;;;;;;;;;;;;;;8.73;66.84;94570.69;5115460;28;19950;-77
2021/04/12 12:58:08;;;;;;;;;;;;;;;9.04;61.85;94580.31;5115500;28;20046;-76
2021/04/12 13:00:35;;;;;;;;;;;;;;;8.65;62.17;94568.94;5115695;28;19932;-76
2021/04/12 13:03:14;;;;;;;;;;;;;;;9.97;58.18;94571.50;5115695;28;19930;-82
2021/04/12 13:05:40;;;;;;;;;;;;;;;10.39;56.62;94573.78;5115248;28;19930;-80
2021/04/12 13:08:08;;;;;;;;;;;;;;;9.74;55.99;94579.38;5115375;28;19928;-82
2021/04/12 13:10:35;;;;;;;;;;;;;;;9.91;53.36;94577.47;5115351;28;19928;-80
2021/04/12 13:13:01;;;;;;;;;;;;;;;9.60;57.00;94580.94;5115153;28;19969;-76
2021/04/12 13:15:31;;;;;;;;;;;;;;;9.08;59.06;94579.00;5115397;28;19977;-78
2021/04/12 13:18:04;;;;;;;;;;;;;;;8.49;61.86;94584.59;5115148;28;19924;-76
2021/04/12 13:20:32;;;;;;;;;;;;;;;7.84;61.36;94582.91;5115049;28;20442;-76
2021/04/12 13:23:04;;;;;;;;;;;;;;;7.71;58.05;94586.81;5115042;28;20034;-75
2021/04/12 13:25:32;;;;;;;;;;;;;;;8.04;59.28;94578.97;5115046;28;20339;-77
2021/04/12 13:28:00;;;;;;;;;;;;;;;8.20;62.12;94572.13;5114911;28;19924;-78
2021/04/12 13:30:27;;;;;;;;;;;;;;;7.89;67.66;94578.84;5114700;28;19924;-80
2021/04/12 13:32:58;;;;;;;;;;;;;;;7.84;64.82;94582.91;5114794;28;19971;-76
2021/04/12 13:35:26;;;;;;;;;;;;;;;7.47;65.81;94584.19;5114851;28;19923;-77
2021/04/12 13:38:01;;;;;;;;;;;;;;;7.18;67.03;94585.47;5114089;28;19928;-76
2021/04/12 13:40:28;;;;;;;;;;;;;;;6.71;66.62;94584.19;5114639;28;20371;-76